Terminal Aerodrome Forecast
Issued by NWS Denver/Boulder, CO

Home | Current Version | Previous Version | Text Only | Print | Product List | Glossary On
Versions: 1 2 3 4 5 6 7 8 9 10 11 12 13 14 15 16 17 18 19 20 21 22 23 24 25 26 27 28 29 30 31 32 33 34 35 36 37 38 39 40 41 42 43 44 45
000
FTUS45 KBOU 282334
TAFDEN
TAF
KDEN 282334Z 2900/3006 10012KT P6SM BKN012 OVC022
     FM290200 10009KT P6SM VCSH BKN010 OVC020
      TEMPO 2903/2905 2SM -SN BR OVC007
     FM290600 09009KT 1 1/2SM -SN BR BKN006 OVC010
     FM291200 07010KT 1SM -SN BR OVC006
     FM291800 04010KT 1SM -SNRA BR OVC007
     FM292300 02011KT 2SM -SN BR OVC011
     FM300300 35008KT 4SM -SN BR OVC014=

USA.gov is the U.S. government's official web portal to all federal, state and local government web resources and services.